Startpagina
METAR-TAF:

METAR-TAF

Vliegvelden :

Aéroport de Luxembourg

Luxemburg, Luxemburg

breedte: 49-37N, lengte: 006-13E, hoogte: 376 m

Actueel weer

Dit bericht is 20 minuten geleden gemaakt, om 23:20 UTC
Wind 5 kt uit het oosten
Temperatuur 20°C
Vochtigheid 68%
Druk 1019 hPa
Zicht 10 km of meer
geen wolken onder 1500 m en geen cumulonimbus

METAR: ELLX 262320Z 09005KT CAVOK 20/14 Q1019 NOSIG

Tijdstip: 01:40 (23:40 UTC)

Verwachting

Dit bericht is 40 minuten geleden gemaakt, om 23:00 UTC
Verwachting geldig van 27 om 00 UTC tot 28 om 06 UTC
Wind 7 kt uit het oosten
Zicht 10 km of meer
geen wolken onder 1500 m en geen cumulonimbus
Tijdelijke
van 27 om 10 UTC tot 27 om 18 UTC
Wind 15 kt uit variabele richting met uitschieters tot 30 kt
Zicht: 4000 m
Weinig wolken op 900 ft
Gebroken wolken op 3000 ft, Cumulonimbus.
onweer, regen, hagel

TAF: ELLX 262300Z 2700/2806 09007KT CAVOK TEMPO 2710/2718 VRB15G30KT 4000 TSRAGR FEW009 BKN030CB

Waarnemingen en weersverwachtingen van meer dan 4000 vliegvelden (METAR en TAF).

De beschikbare stations zijn de gele en rode punten op de kaart.

Ga met uw muis naar het station om de naam te zien.

Klik dan om waarnemingen en weersverwachtingen te zien.

kaart wijzigen: klik op de groene knoppen met een zwart kruis om in te zoomen, op de groene knop met een streepje om uit te zoomen of op de groene pijlen voor aangrenzende kaarten.


METAR-TAF: